Time;durP1;ratioP1;P1;durP2;ratioP2;P2;SDS_P1;SDS_P2;PMS_P1;PMS_P2;Temp;Humidity;BMP_temperature;BMP_pressure;BME280_temperature;BME280_humidity;BME280_pressure;Samples;Min_cycle;Max_cycle;Signal;HPM_P1;HPM_P2
2023/12/24 00:01:51;;;;;;;2.67;1.23;;;10.90;99.20;;;12.43;73.90;100102.34;3081050;46;20546;-64
2023/12/24 00:04:19;;;;;;;2.03;1.30;;;10.90;99.20;;;12.42;73.81;100095.44;3080613;46;20456;-65
2023/12/24 00:06:48;;;;;;;1.10;1.00;;;10.90;99.20;;;12.42;73.73;100100.72;3080343;46;21013;-65
2023/12/24 00:09:16;;;;;;;4.87;1.33;;;10.90;99.20;;;12.42;74.09;100100.72;3080870;46;20561;-66
2023/12/24 00:11:44;;;;;;;2.10;1.43;;;10.90;99.20;;;12.42;73.71;100098.06;3081120;46;20428;-65
2023/12/24 00:14:13;;;;;;;1.80;1.27;;;10.90;99.50;;;12.41;74.10;100089.34;3080186;46;21021;-63
2023/12/24 00:16:41;;;;;;;1.57;1.30;;;10.90;99.20;;;12.42;73.90;100106.00;3080436;46;20432;-66
2023/12/24 00:19:10;;;;;;;2.07;1.10;;;10.90;99.50;;;12.42;73.53;100103.34;3080840;46;20457;-66
2023/12/24 00:21:38;;;;;;;1.60;1.23;;;10.90;99.20;;;12.40;74.30;100098.28;3081185;46;20430;-65
2023/12/24 00:24:06;;;;;;;1.33;1.10;;;10.90;99.20;;;12.40;74.00;100098.28;3080791;46;20992;-64
2023/12/24 00:26:38;;;;;;;1.47;1.23;;;10.90;99.20;;;12.42;74.13;100095.44;3080428;46;20513;-66
2023/12/24 00:29:07;;;;;;;1.77;1.40;;;10.90;99.20;;;12.40;74.23;100097.47;3080502;46;20518;-65
2023/12/24 00:31:35;;;;;;;1.73;1.00;;;10.90;99.20;;;12.38;74.01;100088.94;3081153;46;20516;-65
2023/12/24 00:34:04;;;;;;;2.10;1.17;;;10.90;99.20;;;12.40;74.15;100098.28;3081113;46;21081;-66
2023/12/24 00:36:32;;;;;;;1.90;1.20;;;10.90;99.30;;;12.38;74.23;100089.75;3080317;46;20438;-66
2023/12/24 00:39:00;;;;;;;1.60;1.50;;;10.90;99.20;;;12.39;74.03;100101.09;3080740;46;20441;-65
2023/12/24 00:41:30;;;;;;;1.93;1.57;;;10.90;99.20;;;12.38;74.26;100092.41;3082187;46;20434;-64
2023/12/24 00:43:58;;;;;;;1.50;1.23;;;10.90;99.20;;;12.40;74.05;100103.56;3082970;46;20518;-64
2023/12/24 00:46:27;;;;;;;2.33;1.47;;;10.90;99.20;;;12.42;74.10;100108.63;3082511;46;21144;-63
2023/12/24 00:48:55;;;;;;;2.97;1.73;;;10.90;99.30;;;12.44;73.97;100104.78;3082905;46;20432;-66
2023/12/24 00:51:23;;;;;;;2.67;1.50;;;10.90;99.30;;;12.45;73.92;100100.31;3082979;46;20491;-66
2023/12/24 00:53:52;;;;;;;1.97;1.20;;;10.90;99.30;;;12.46;73.78;100101.94;3082954;46;20996;-64
2023/12/24 00:56:20;;;;;;;4.13;1.90;;;10.90;99.30;;;12.46;73.91;100096.66;3082454;46;20545;-66
2023/12/24 00:58:49;;;;;;;5.97;1.70;;;10.90;99.30;;;12.46;73.87;100089.53;3082337;46;20457;-66
2023/12/24 01:01:17;;;;;;;4.60;1.87;;;10.90;99.30;;;12.45;73.89;100102.97;3082820;46;20439;-65
2023/12/24 01:03:46;;;;;;;2.37;1.33;;;10.90;99.30;;;12.42;74.17;100098.06;3082763;46;20431;-66
2023/12/24 01:06:14;;;;;;;1.97;1.60;;;10.90;99.30;;;12.42;74.28;100100.72;3082802;46;21129;-66
2023/12/24 01:08:43;;;;;;;2.50;1.50;;;10.90;99.30;;;12.41;74.10;100088.56;3081889;46;20501;-66
2023/12/24 01:11:12;;;;;;;2.90;1.80;;;11.00;99.40;;;12.40;74.42;100093.00;3082588;46;21027;-66
2023/12/24 01:13:41;;;;;;;2.73;1.80;;;10.90;99.70;;;12.39;74.32;100093.19;3082981;46;20451;-65
2023/12/24 01:16:09;;;;;;;3.83;1.70;;;10.90;99.30;;;12.38;74.15;100094.22;3082365;46;20434;-66
2023/12/24 01:18:37;;;;;;;5.30;2.13;;;10.90;99.30;;;12.40;74.48;100092.19;3082035;46;20523;-64
2023/12/24 01:21:06;;;;;;;2.73;1.60;;;10.90;99.40;;;12.39;74.35;100083.47;3082605;46;20489;-64
2023/12/24 01:23:34;;;;;;;2.50;1.70;;;10.90;99.40;;;12.41;74.48;100088.56;3082549;46;20432;-66
2023/12/24 01:26:03;;;;;;;3.27;1.80;;;10.90;99.40;;;12.42;74.35;100080.41;3082602;46;21099;-66
2023/12/24 01:28:31;;;;;;;2.20;1.77;;;10.90;99.40;;;12.43;74.34;100091.78;3081992;46;20459;-66
2023/12/24 01:31:00;;;;;;;3.00;1.93;;;10.90;99.40;;;12.44;74.16;100088.13;3082666;46;20440;-66
2023/12/24 01:33:28;;;;;;;2.37;1.60;;;10.90;99.50;;;12.43;74.42;100092.59;3082351;46;20553;-65
2023/12/24 01:35:57;;;;;;;1.97;1.57;;;10.90;99.50;;;12.43;74.11;100086.50;3081446;46;20492;-65
2023/12/24 01:38:25;;;;;;;3.47;1.50;;;10.90;99.40;;;12.44;74.32;100082.84;3081940;46;21093;-64
2023/12/24 01:40:54;;;;;;;2.97;1.70;;;10.90;99.50;;;12.44;74.12;100077.56;3081886;46;21046;-66
2023/12/24 01:43:22;;;;;;;4.60;2.00;;;10.90;99.40;;;12.44;74.15;100082.84;3081792;46;21001;-66
2023/12/24 01:45:50;;;;;;;2.97;1.87;;;10.90;99.50;;;12.45;74.16;100077.38;3082396;46;20431;-66
2023/12/24 01:48:21;;;;;;;3.87;2.33;;;10.90;99.50;;;12.46;74.40;100071.06;3081549;46;20487;-66
2023/12/24 01:50:50;;;;;;;2.57;2.13;;;10.90;99.40;;;12.48;74.43;100073.53;3082450;46;20470;-66
2023/12/24 01:53:19;;;;;;;3.70;2.10;;;10.90;99.50;;;12.49;74.03;100072.50;3081388;46;21016;-66
2023/12/24 01:55:48;;;;;;;4.07;1.90;;;10.90;99.50;;;12.47;74.26;100072.72;3081856;46;20428;-65
2023/12/24 01:58:17;;;;;;;4.60;2.50;;;10.90;99.50;;;12.45;74.34;100058.09;3081723;46;21027;-66
2023/12/24 02:00:49;;;;;;;3.00;2.17;;;10.90;99.40;;;12.45;74.38;100058.09;3081941;46;20476;-66
2023/12/24 02:03:19;;;;;;;2.43;2.10;;;10.90;99.40;;;12.45;74.11;100069.47;3082443;46;20456;-66
2023/12/24 02:05:50;;;;;;;2.20;2.00;;;10.90;99.40;;;12.46;74.35;100064.97;3081196;46;20489;-66
2023/12/24 02:08:18;;;;;;;2.97;2.00;;;10.90;99.40;;;12.45;74.11;100056.28;3081633;46;20439;-66
2023/12/24 02:10:50;;;;;;;4.20;2.40;;;10.90;99.40;;;12.45;73.95;100058.09;3081960;46;21121;-65
2023/12/24 02:13:19;;;;;;;3.20;1.90;;;10.90;99.40;;;12.47;74.24;100050.78;3082399;46;20435;-65
2023/12/24 02:15:56;;;;;;;1.80;1.70;;;10.90;99.40;;;12.47;73.90;100061.34;3082269;46;20486;-65
2023/12/24 02:18:25;;;;;;;3.60;2.10;;;10.90;99.40;;;12.47;73.89;100063.97;3080920;46;20467;-68
2023/12/24 02:21:03;;;;;;;2.47;1.93;;;10.90;99.40;;;12.45;73.90;100060.72;3081402;46;20427;-66
2023/12/24 02:23:31;;;;;;;2.67;2.00;;;10.90;99.40;;;12.45;73.89;100043.06;3081532;46;20456;-69
2023/12/24 02:26:14;;;;;;;3.57;2.20;;;10.90;99.40;;;12.44;74.04;100045.91;3081915;46;20456;-66
2023/12/24 02:28:51;;;;;;;2.87;1.87;;;10.90;99.30;;;12.46;74.23;100039.41;3080717;46;21043;-66
2023/12/24 02:31:26;;;;;;;2.57;2.10;;;10.90;99.30;;;12.47;73.96;100037.56;3081936;46;21037;-66
2023/12/24 02:33:58;;;;;;;3.30;2.03;;;10.90;99.40;;;12.48;74.08;100041.84;3081006;46;20506;-65
2023/12/24 02:36:29;;;;;;;3.77;2.23;;;10.90;99.40;;;12.44;73.92;100041.44;3080606;46;20477;-70
2023/12/24 02:38:57;;;;;;;2.90;2.00;;;10.90;99.30;;;12.44;74.17;100035.34;3081833;46;21026;-65
2023/12/24 02:41:25;;;;;;;4.53;2.30;;;10.90;99.30;;;12.46;74.40;100049.13;3080686;46;20498;-64
2023/12/24 02:43:54;;;;;;;3.60;2.40;;;10.90;99.30;;;12.46;74.32;100049.13;3081847;46;20427;-63
2023/12/24 02:46:22;;;;;;;3.83;2.73;;;10.90;99.40;;;12.46;74.15;100041.22;3081035;46;20524;-67
2023/12/24 02:48:50;;;;;;;3.63;2.00;;;10.90;99.40;;;12.47;74.49;100040.22;3081099;46;20436;-65
2023/12/24 02:51:19;;;;;;;2.20;2.00;;;10.90;99.40;;;12.48;74.21;100047.13;3081541;46;20428;-66
2023/12/24 02:53:48;;;;;;;3.17;1.90;;;10.90;99.50;;;12.45;74.30;100026.41;3081640;46;20457;-66
2023/12/24 02:56:16;;;;;;;3.50;2.10;;;10.90;99.40;;;12.46;74.27;100039.41;3081286;46;20507;-65
2023/12/24 02:58:44;;;;;;;2.50;2.10;;;10.90;99.50;;;12.47;74.34;100027.03;3081001;46;20443;-69
2023/12/24 03:01:13;;;;;;;4.37;2.57;;;10.90;99.40;;;12.47;74.13;100038.41;3081550;46;20463;-66
2023/12/24 03:03:41;;;;;;;3.10;2.00;;;10.90;99.40;;;12.47;74.42;100027.03;3081288;46;20489;-66
2023/12/24 03:06:09;;;;;;;3.57;2.23;;;10.90;99.40;;;12.48;74.04;100023.38;3081451;46;21092;-66
2023/12/24 03:08:38;;;;;;;2.60;2.20;;;10.90;99.40;;;12.49;74.24;100027.63;3080709;46;20588;-66
2023/12/24 03:11:06;;;;;;;3.03;2.40;;;11.00;99.40;;;12.52;74.11;100016.66;3081424;46;20435;-66
2023/12/24 03:13:35;;;;;;;2.77;1.93;;;10.90;99.40;;;12.53;73.79;100031.47;3081011;46;20452;-66
2023/12/24 03:16:04;;;;;;;2.90;1.67;;;10.90;99.40;;;12.53;73.84;100027.00;3081464;46;20499;-71
2023/12/24 03:18:32;;;;;;;2.33;1.77;;;10.90;99.40;;;12.55;74.15;100016.25;3080698;46;20443;-66
2023/12/24 03:21:01;;;;;;;2.03;1.77;;;11.00;99.40;;;12.55;73.91;100016.25;3081285;46;21123;-64
2023/12/24 03:23:30;;;;;;;5.60;2.77;;;10.90;99.40;;;12.55;73.88;100005.72;3081084;46;20577;-66
2023/12/24 03:25:58;;;;;;;4.43;2.13;;;11.00;99.40;;;12.55;73.83;100016.25;3081317;46;20553;-66
2023/12/24 03:28:27;;;;;;;2.83;1.60;;;11.00;99.40;;;12.53;74.18;100010.34;3080814;46;20470;-65
2023/12/24 03:30:55;;;;;;;2.30;1.70;;;11.00;99.30;;;12.53;74.27;100008.53;3081627;46;20433;-66
2023/12/24 03:33:24;;;;;;;2.23;1.73;;;11.00;99.40;;;12.55;74.15;100006.50;3081270;46;21017;-66
2023/12/24 03:35:52;;;;;;;4.13;2.50;;;11.00;99.40;;;12.55;74.07;100010.97;3081067;46;21036;-66
2023/12/24 03:38:20;;;;;;;3.43;2.07;;;11.00;99.40;;;12.51;74.13;100001.84;3080628;46;20459;-66
2023/12/24 03:40:49;;;;;;;3.23;2.47;;;11.00;99.40;;;12.51;73.92;100004.47;3080418;46;20432;-65
2023/12/24 03:43:17;;;;;;;1.97;1.50;;;11.00;99.40;;;12.51;74.25;100001.84;3081413;46;20432;-66
2023/12/24 03:45:46;;;;;;;1.63;1.50;;;10.90;99.40;;;12.51;73.96;100007.94;3080923;46;20442;-66
2023/12/24 03:48:14;;;;;;;2.10;1.47;;;11.00;99.40;;;12.53;74.26;100013.00;3080616;46;20439;-66
2023/12/24 03:50:43;;;;;;;2.10;1.57;;;11.00;99.50;;;12.53;74.28;100002.44;3080812;46;20546;-66
2023/12/24 03:53:11;;;;;;;3.30;1.67;;;11.00;99.50;;;12.54;74.15;100004.06;3081255;46;20478;-66
2023/12/24 03:55:40;;;;;;;4.17;2.30;;;10.90;99.50;;;12.55;74.13;100005.72;3080737;46;20449;-66
2023/12/24 03:58:08;;;;;;;1.90;1.53;;;10.90;99.50;;;12.55;74.22;99995.94;3080378;46;21285;-65
2023/12/24 04:00:37;;;;;;;2.40;1.57;;;11.00;99.50;;;12.55;74.17;99985.38;3081523;46;20511;-66
2023/12/24 04:03:05;;;;;;;1.97;1.37;;;11.00;99.50;;;12.58;74.26;99990.25;3080745;46;20454;-66
2023/12/24 04:05:34;;;;;;;1.50;1.40;;;11.00;99.60;;;12.59;73.85;99996.34;3081212;46;20515;-65
2023/12/24 04:08:04;;;;;;;3.00;1.70;;;10.90;99.50;;;12.57;73.96;99990.47;3080160;46;21085;-65
2023/12/24 04:10:33;;;;;;;3.93;1.87;;;11.00;99.50;;;12.56;73.90;99991.47;3080433;46;20424;-66
2023/12/24 04:13:02;;;;;;;2.47;1.70;;;11.00;99.50;;;12.54;74.21;99991.69;3080549;46;20463;-65
2023/12/24 04:15:30;;;;;;;2.03;1.77;;;11.00;99.50;;;12.55;73.96;99989.88;3081794;46;20460;-66
2023/12/24 04:17:59;;;;;;;3.73;1.83;;;11.00;99.50;;;12.53;74.13;99981.31;3082347;46;20442;-66
2023/12/24 04:20:27;;;;;;;3.47;1.50;;;10.90;99.50;;;12.54;74.35;99980.31;3082732;46;21108;-66
2023/12/24 04:22:56;;;;;;;3.80;2.50;;;11.00;99.60;;;12.54;74.29;99978.50;3082836;46;20427;-66
2023/12/24 04:25:24;;;;;;;4.30;2.23;;;11.00;99.60;;;12.56;74.11;99986.19;3082995;46;20630;-66
2023/12/24 04:27:53;;;;;;;1.60;1.43;;;10.90;99.60;;;12.57;74.37;99977.28;3082610;46;21020;-66
2023/12/24 04:30:21;;;;;;;2.40;1.63;;;11.00;99.60;;;12.56;74.25;99975.63;3082948;46;20438;-66
2023/12/24 04:32:49;;;;;;;1.70;1.27;;;10.90;99.60;;;12.53;74.45;99971.56;3082965;46;20445;-65
2023/12/24 04:35:19;;;;;;;4.23;1.77;;;11.00;99.60;;;12.54;74.22;99964.47;3083011;46;20428;-66
2023/12/24 04:37:48;;;;;;;3.00;1.63;;;11.00;99.60;;;12.51;74.33;99957.78;3082416;46;20438;-64
2023/12/24 04:40:16;;;;;;;2.40;1.73;;;10.90;99.50;;;12.46;74.72;99969.97;3082866;46;21036;-66
2023/12/24 04:42:44;;;;;;;3.47;1.80;;;11.00;99.60;;;12.47;74.81;99963.69;3082313;46;21011;-66
2023/12/24 04:45:13;;;;;;;3.57;1.60;;;11.00;99.60;;;12.49;74.66;99948.44;3082953;46;20984;-65
2023/12/24 04:47:42;;;;;;;3.23;1.60;;;10.90;99.90;;;12.51;74.60;99941.13;3082335;46;20495;-66
2023/12/24 04:50:10;;;;;;;2.63;1.60;;;10.90;99.60;;;12.51;74.58;99947.22;3082316;46;20520;-64
2023/12/24 04:52:39;;;;;;;3.40;1.93;;;10.90;99.70;;;12.50;74.64;99939.53;3082930;46;20435;-66
2023/12/24 04:55:08;;;;;;;2.33;1.30;;;11.00;99.70;;;12.51;74.74;99935.84;3082946;46;20520;-66
2023/12/24 04:57:36;;;;;;;2.43;1.37;;;11.00;99.70;;;12.51;74.69;99930.56;3082431;46;20467;-63
2023/12/24 05:00:06;;;;;;;1.90;1.30;;;10.90;99.70;;;12.51;74.45;99941.13;3082746;46;20526;-66
2023/12/24 05:02:34;;;;;;;2.33;1.30;;;11.00;99.70;;;12.51;74.63;99934.03;3082755;46;20504;-65
2023/12/24 05:05:03;;;;;;;1.57;1.20;;;10.90;99.70;;;12.52;74.59;99927.75;3082446;46;20520;-65
2023/12/24 05:07:31;;;;;;;1.40;1.30;;;11.00;99.80;;;12.53;74.82;99929.34;3082287;46;20656;-65
2023/12/24 05:10:01;;;;;;;1.63;1.00;;;10.90;99.70;;;12.55;75.02;99915.97;3082578;46;21023;-66
2023/12/24 05:12:29;;;;;;;1.97;1.30;;;11.00;99.80;;;12.57;74.50;99913.91;3082644;46;20583;-66
2023/12/24 05:15:03;;;;;;;1.27;1.17;;;11.00;99.80;;;12.58;74.57;99916.34;3082533;46;21005;-66
2023/12/24 05:17:33;;;;;;;1.30;1.20;;;11.00;99.80;;;12.59;74.85;99920.63;3081071;46;20440;-65
2023/12/24 05:20:01;;;;;;;1.10;1.10;;;11.00;99.80;;;12.60;74.61;99916.94;3082680;46;20776;-66
2023/12/24 05:22:30;;;;;;;1.03;0.93;;;11.00;99.80;;;12.61;74.48;99913.28;3082076;46;21087;-66
2023/12/24 05:24:58;;;;;;;1.37;1.27;;;11.00;99.80;;;12.62;74.63;99912.25;3082323;46;21074;-66
2023/12/24 05:27:27;;;;;;;1.80;1.00;;;11.10;99.80;;;12.65;74.30;99924.22;3081644;46;20438;-62
2023/12/24 05:29:55;;;;;;;1.17;1.13;;;11.00;99.80;;;12.65;74.37;99921.59;3082999;46;21052;-66
2023/12/24 05:32:24;;;;;;;1.10;1.10;;;11.00;99.80;;;12.65;74.66;99911.03;3082162;46;20432;-66
2023/12/24 05:34:53;;;;;;;1.30;1.20;;;11.00;99.80;;;12.65;74.70;99922.41;3082282;46;21018;-66
2023/12/24 05:37:21;;;;;;;1.10;1.10;;;11.00;99.70;;;12.65;74.65;99914.50;3082010;46;20471;-64
2023/12/24 05:39:49;;;;;;;1.20;1.10;;;11.00;99.80;;;12.66;74.55;99917.94;3082122;46;21020;-66
2023/12/24 05:42:18;;;;;;;2.27;1.20;;;11.00;99.80;;;12.67;74.39;99917.72;3082114;46;20440;-65
2023/12/24 05:44:46;;;;;;;0.93;0.87;;;11.00;99.80;;;12.65;74.42;99911.84;3082277;46;20998;-66
2023/12/24 05:47:14;;;;;;;0.90;0.90;;;11.10;99.80;;;12.65;74.73;99918.94;3081814;46;20443;-64
2023/12/24 05:49:43;;;;;;;1.37;1.13;;;11.10;99.80;;;12.62;74.60;99900.91;3081842;46;21011;-66
2023/12/24 05:52:11;;;;;;;0.90;0.90;;;11.10;99.80;;;12.62;75.02;99911.47;3082204;46;20988;-65
2023/12/24 05:54:40;;;;;;;1.00;1.00;;;11.10;99.80;;;12.62;74.56;99911.47;3082418;46;20431;-64
2023/12/24 05:57:08;;;;;;;1.93;1.30;;;11.10;99.80;;;12.63;74.96;99899.88;3081921;46;20938;-65
2023/12/24 05:59:37;;;;;;;1.27;1.10;;;11.10;99.80;;;12.62;74.54;99904.34;3081853;46;20474;-66
2023/12/24 06:02:05;;;;;;;1.13;1.03;;;11.10;99.90;;;12.60;74.68;99897.66;3082087;46;21012;-66
2023/12/24 06:04:34;;;;;;;1.00;1.00;;;11.10;99.90;;;12.60;75.00;99897.66;3081763;46;21068;-65
2023/12/24 06:07:04;;;;;;;1.30;1.20;;;11.00;99.80;;;12.60;74.84;99900.31;3081907;46;20585;-66
2023/12/24 06:09:32;;;;;;;1.73;1.00;;;11.10;99.90;;;12.59;74.89;99890.75;3081876;46;20433;-66
2023/12/24 06:12:01;;;;;;;0.83;0.83;;;11.00;99.90;;;12.61;75.09;99894.00;3081942;46;20431;-66
2023/12/24 06:14:29;;;;;;;1.17;0.93;;;11.10;99.90;;;12.62;75.02;99890.34;3081748;46;21008;-66
2023/12/24 06:16:58;;;;;;;0.90;0.90;;;11.00;99.90;;;12.63;74.91;99884.03;3081702;46;20451;-66
2023/12/24 06:19:27;;;;;;;1.17;1.10;;;11.10;99.90;;;12.63;74.91;99894.59;3081339;46;20431;-65
2023/12/24 06:21:59;;;;;;;0.90;0.90;;;11.10;99.90;;;12.63;74.94;99887.50;3082142;46;20522;-66
2023/12/24 06:24:27;;;;;;;0.87;0.87;;;11.10;99.90;;;12.64;74.85;99889.13;3082108;46;20459;-64
2023/12/24 06:26:56;;;;;;;0.93;0.87;;;11.10;99.90;;;12.64;74.96;99888.31;3081446;46;21135;-68
2023/12/24 06:29:24;;;;;;;0.60;0.60;;;11.10;99.90;;;12.62;75.12;99885.06;3081805;46;20457;-66
2023/12/24 06:31:55;;;;;;;0.97;0.90;;;11.10;99.90;;;12.61;75.47;99884.25;3081885;46;20432;-64
2023/12/24 06:34:24;;;;;;;0.80;0.80;;;11.10;99.90;;;12.59;75.24;99874.91;3081833;46;20427;-66
2023/12/24 06:36:52;;;;;;;1.07;0.80;;;11.10;99.90;;;12.59;75.26;99869.63;3081322;46;20441;-66
2023/12/24 06:39:21;;;;;;;0.53;0.53;;;11.10;99.90;;;12.58;75.69;99862.72;3081068;46;20451;-64
2023/12/24 06:41:50;;;;;;;0.70;0.70;;;11.10;99.90;;;12.59;75.64;99853.81;3081211;46;21098;-64
2023/12/24 06:44:18;;;;;;;0.63;0.63;;;11.10;99.90;;;12.60;75.62;99843.03;3081772;46;21005;-64
2023/12/24 06:46:46;;;;;;;0.83;0.83;;;11.10;99.90;;;12.56;75.69;99849.75;3081119;46;20493;-64
2023/12/24 06:49:15;;;;;;;0.70;0.70;;;11.10;99.90;;;12.60;75.70;99858.84;3081416;46;21037;-66
2023/12/24 06:51:43;;;;;;;0.80;0.80;;;11.10;99.90;;;12.61;75.68;99849.13;3081708;46;20520;-66
2023/12/24 06:54:12;;;;;;;0.90;0.90;;;11.10;99.90;;;12.63;75.69;99849.72;3081020;46;21087;-64
2023/12/24 06:56:40;;;;;;;1.10;1.10;;;11.10;99.90;;;12.61;75.46;99849.13;3080902;46;20975;-64
2023/12/24 06:59:09;;;;;;;0.90;0.90;;;11.10;99.90;;;12.64;75.82;99840.78;3081870;46;20439;-66
2023/12/24 07:01:37;;;;;;;1.03;1.03;;;11.10;99.90;;;12.62;75.63;99842.84;3081727;46;20429;-66
2023/12/24 07:04:05;;;;;;;1.20;1.10;;;11.10;99.90;;;12.63;75.76;99842.63;3081610;46;20431;-66
2023/12/24 07:06:34;;;;;;;0.97;0.97;;;11.10;99.90;;;12.64;75.69;99849.53;3081299;46;20452;-65
2023/12/24 07:09:02;;;;;;;1.20;1.10;;;11.10;99.90;;;12.66;75.50;99855.41;3080980;46;21020;-66
2023/12/24 07:11:31;;;;;;;0.90;0.90;;;11.10;99.90;;;12.67;75.57;99851.72;3081316;46;21027;-65
2023/12/24 07:13:59;;;;;;;1.87;1.07;;;11.10;99.90;;;12.70;75.69;99856.59;3081541;46;20452;-66
2023/12/24 07:16:28;;;;;;;0.97;0.97;;;11.10;99.90;;;12.73;75.70;99848.25;3080873;46;20984;-66
2023/12/24 07:18:57;;;;;;;1.10;1.10;;;11.20;99.90;;;12.74;75.61;99839.31;3081331;46;20428;-66
2023/12/24 07:21:26;;;;;;;1.07;1.07;;;11.10;99.90;;;12.77;75.52;99846.00;3081036;46;20983;-67
2023/12/24 07:23:54;;;;;;;1.17;1.07;;;11.20;99.90;;;12.79;75.81;99828.91;3081403;46;20425;-65
2023/12/24 07:26:22;;;;;;;0.90;0.90;;;11.20;99.90;;;12.80;75.80;99825.28;3080960;46;20431;-66
2023/12/24 07:28:52;;;;;;;1.67;0.90;;;11.20;99.90;;;12.81;75.40;99826.09;3081486;46;20454;-65
2023/12/24 07:31:20;;;;;;;0.90;0.90;;;11.20;99.90;;;12.81;75.53;99837.44;3080889;46;21107;-66
2023/12/24 07:33:49;;;;;;;0.83;0.83;;;11.20;99.90;;;12.82;75.80;99835.63;3081359;46;20429;-66
2023/12/24 07:36:17;;;;;;;0.90;0.90;;;11.30;99.90;;;12.82;75.70;99832.97;3081021;46;20450;-66
2023/12/24 07:38:46;;;;;;;0.80;0.80;;;11.30;99.90;;;12.84;75.91;99828.28;3080670;46;20464;-66
2023/12/24 07:41:14;;;;;;;1.20;1.10;;;11.30;99.90;;;12.87;75.71;99825.22;3080519;46;20427;-64
2023/12/24 07:43:43;;;;;;;0.70;0.70;;;11.30;99.90;;;12.87;75.65;99826.03;3080845;46;21014;-65
2023/12/24 07:46:11;;;;;;;0.80;0.80;;;11.30;99.90;;;12.90;75.42;99824.81;3080953;46;20505;-66
2023/12/24 07:48:39;;;;;;;0.90;0.90;;;11.30;99.90;;;12.90;76.00;99836.19;3079550;46;21102;-62
2023/12/24 07:51:08;;;;;;;1.53;1.07;;;11.30;99.90;;;12.92;75.70;99833.34;3083125;46;20427;-63
2023/12/24 07:53:36;;;;;;;0.90;0.90;;;11.30;99.90;;;12.93;75.80;99824.41;3083363;46;21104;-66
2023/12/24 07:56:06;;;;;;;1.27;0.90;;;11.30;99.90;;;12.96;75.53;99839.78;3083148;46;21135;-66
2023/12/24 07:58:34;;;;;;;0.60;0.60;;;11.30;99.90;;;12.96;75.64;99820.50;3082797;46;20440;-66
2023/12/24 08:01:02;;;;;;;0.67;0.67;;;11.40;99.90;;;12.95;75.97;99822.34;3083402;46;20494;-67
2023/12/24 08:03:31;;;;;;;0.87;0.87;;;11.40;99.90;;;12.98;75.97;99821.13;3083315;46;21001;-66
2023/12/24 08:05:59;;;;;;;0.90;0.90;;;11.40;99.90;;;13.01;76.10;99821.47;3083440;46;20581;-65
2023/12/24 08:08:28;;;;;;;0.83;0.83;;;11.40;99.90;;;13.04;75.66;99820.25;3082817;46;20523;-65
2023/12/24 08:10:56;;;;;;;0.60;0.60;;;11.40;99.90;;;13.08;75.89;99827.56;3083355;46;20603;-66
2023/12/24 08:13:36;;;;;;;0.80;0.80;;;11.50;99.90;;;13.09;75.62;99829.19;3083418;46;20453;-66
2023/12/24 08:16:06;;;;;;;0.70;0.70;;;11.50;99.90;;;13.12;75.82;99834.03;3082954;46;20512;-66
2023/12/24 08:18:37;;;;;;;0.93;0.90;;;11.50;99.90;;;13.12;75.82;99815.53;3082221;46;20442;-66
2023/12/24 08:21:10;;;;;;;0.60;0.60;;;11.50;99.90;;;13.15;75.69;99806.38;3083128;46;21043;-66
2023/12/24 08:23:38;;;;;;;0.60;0.60;;;11.60;99.90;;;13.17;75.64;99825.50;3083295;46;20431;-65
2023/12/24 08:26:07;;;;;;;0.87;0.87;;;11.60;99.90;;;13.19;75.80;99811.03;3083106;46;20513;-66
2023/12/24 08:28:35;;;;;;;0.77;0.77;;;11.60;99.90;;;13.20;75.75;99807.38;3082599;46;20533;-64
2023/12/24 08:31:03;;;;;;;0.80;0.80;;;11.60;99.90;;;13.22;75.73;99813.25;3083042;46;20431;-66
2023/12/24 08:33:32;;;;;;;0.90;0.90;;;11.60;99.90;;;13.20;75.70;99807.38;3082800;46;20926;-66
2023/12/24 08:36:01;;;;;;;0.77;0.77;;;11.60;99.90;;;13.22;75.53;99818.53;3083204;46;20553;-66
2023/12/24 08:38:30;;;;;;;0.77;0.77;;;11.60;99.90;;;13.23;75.65;99812.22;3082416;46;20442;-66
2023/12/24 08:40:58;;;;;;;0.60;0.60;;;11.70;99.90;;;13.26;75.80;99814.47;3081588;46;21063;-66
2023/12/24 08:43:27;;;;;;;0.93;0.93;;;11.70;99.90;;;13.29;75.72;99829.84;3082994;46;20925;-66
2023/12/24 08:45:59;;;;;;;0.80;0.70;;;11.60;99.90;;;13.27;75.69;99823.97;3082750;46;20420;-64
2023/12/24 08:48:27;;;;;;;0.80;0.80;;;11.70;99.90;;;13.28;76.18;99811.59;3081881;46;20469;-66
2023/12/24 08:50:56;;;;;;;0.90;0.90;;;11.70;99.90;;;13.29;76.02;99824.56;3082743;46;20435;-66
2023/12/24 08:53:24;;;;;;;0.77;0.77;;;11.70;99.90;;;13.32;75.80;99818.88;3082995;46;20488;-65
2023/12/24 08:55:53;;;;;;;0.73;0.73;;;11.70;99.90;;;13.32;75.98;99818.88;3082598;46;21029;-66
2023/12/24 08:58:21;;;;;;;0.60;0.60;;;11.80;99.90;;;13.34;76.21;99816.81;3082255;46;20440;-66
2023/12/24 09:00:49;;;;;;;0.90;0.90;;;11.80;99.90;;;13.37;75.90;99807.66;3082175;46;20459;-66
2023/12/24 09:03:18;;;;;;;1.90;1.23;;;11.80;99.90;;;13.39;75.81;99810.88;3083046;46;20455;-65
2023/12/24 09:05:46;;;;;;;0.90;0.90;;;11.80;99.90;;;13.41;76.07;99801.72;3082888;46;20469;-66
2023/12/24 09:08:15;;;;;;;1.20;0.93;;;11.80;99.90;;;13.44;75.98;99795.19;3082202;46;20476;-64
2023/12/24 09:10:43;;;;;;;0.93;0.93;;;11.80;99.90;;;13.45;75.80;99800.25;3082705;46;20444;-66
2023/12/24 09:13:12;;;;;;;1.27;1.17;;;11.90;99.90;;;13.49;76.09;99817.31;3082524;46;21024;-67
2023/12/24 09:15:40;;;;;;;1.10;1.10;;;11.90;99.90;;;13.51;76.30;99791.47;3082590;46;20427;-66
2023/12/24 09:18:08;;;;;;;1.33;1.10;;;11.90;99.90;;;13.56;75.81;99794.28;3082002;46;20467;-66
2023/12/24 09:20:37;;;;;;;0.90;0.90;;;11.90;99.90;;;13.60;75.98;99799.91;3082270;46;20429;-65
2023/12/24 09:23:05;;;;;;;0.90;0.90;;;11.90;99.90;;;13.63;75.72;99803.97;3082581;46;20457;-66
2023/12/24 09:25:34;;;;;;;1.23;1.13;;;12.00;99.90;;;13.66;76.09;99801.72;3082670;46;20461;-65
2023/12/24 09:28:02;;;;;;;0.87;0.87;;;12.00;99.90;;;13.71;75.67;99811.63;3081921;46;20444;-66
2023/12/24 09:30:31;;;;;;;0.97;0.90;;;12.00;99.90;;;13.72;76.01;99807.94;3082326;46;20490;-66
2023/12/24 09:32:59;;;;;;;0.97;0.97;;;12.10;99.90;;;13.73;75.65;99797.16;3082442;46;20428;-66
2023/12/24 09:35:30;;;;;;;0.90;0.90;;;12.00;99.90;;;13.76;75.69;99820.53;3082489;46;20439;-65
2023/12/24 09:37:58;;;;;;;1.10;1.10;;;12.10;99.90;;;13.79;75.96;99821.91;3081795;46;20439;-67
2023/12/24 09:40:26;;;;;;;1.27;0.93;;;12.10;99.90;;;13.82;75.71;99810.91;3081793;46;20452;-66
2023/12/24 09:42:55;;;;;;;1.83;1.20;;;12.10;99.90;;;13.85;75.89;99813.13;3081116;46;20491;-66
2023/12/24 09:45:23;;;;;;;0.90;0.90;;;12.20;99.90;;;13.87;75.59;99800.47;3081718;46;20557;-66
2023/12/24 09:47:56;;;;;;;0.87;0.87;;;12.20;99.90;;;13.90;75.41;99808.81;3081865;46;20536;-65
2023/12/24 09:50:25;;;;;;;1.40;0.80;;;12.20;99.90;;;13.92;75.70;99813.88;3082291;46;20431;-66
2023/12/24 09:52:53;;;;;;;0.90;0.90;;;12.20;99.90;;;13.94;75.39;99811.81;3082216;46;20469;-66
2023/12/24 09:55:22;;;;;;;2.20;0.93;;;12.20;99.90;;;13.96;75.31;99809.75;3082263;46;20439;-66
2023/12/24 09:57:50;;;;;;;0.90;0.90;;;12.30;99.90;;;13.97;75.70;99817.50;3081659;46;20488;-65
2023/12/24 10:00:19;;;;;;;1.00;1.00;;;12.30;99.90;;;13.99;75.43;99823.38;3082030;46;20554;-64
2023/12/24 10:02:47;;;;;;;1.10;1.10;;;12.30;99.90;;;14.01;75.48;99820.50;3081729;46;20553;-66
2023/12/24 10:05:16;;;;;;;1.10;1.00;;;12.30;99.90;;;14.03;75.20;99821.06;3082155;46;20451;-66
2023/12/24 10:07:45;;;;;;;0.93;0.93;;;12.40;99.90;;;14.02;75.45;99815.00;3081232;46;20541;-64
2023/12/24 10:10:14;;;;;;;1.37;1.03;;;12.30;99.90;;;14.03;75.67;99821.88;3081654;46;20432;-66
2023/12/24 10:12:42;;;;;;;1.00;0.93;;;12.40;99.90;;;14.02;75.43;99808.88;3080991;46;20431;-66
2023/12/24 10:15:11;;;;;;;1.00;1.00;;;12.40;99.90;;;14.04;75.60;99797.06;3082008;46;20520;-65
2023/12/24 10:17:40;;;;;;;1.10;1.10;;;12.40;99.90;;;14.08;75.22;99792.13;3081323;46;20451;-65
2023/12/24 10:20:09;;;;;;;1.43;0.83;;;12.40;99.90;;;14.10;75.64;99787.41;3081743;46;21106;-65
2023/12/24 10:22:38;;;;;;;0.80;0.80;;;12.40;99.90;;;14.10;75.48;99785.59;3082007;46;20427;-66
2023/12/24 10:25:07;;;;;;;0.97;0.77;;;12.50;99.90;;;14.12;75.26;99790.66;3082039;46;20457;-66